createdAt,value
2017-12-28T00:01:17.594Z,0.70
2017-12-28T00:03:45.402Z,1.20
2017-12-28T00:06:13.023Z,1.60
2017-12-28T00:08:40.575Z,1.23
2017-12-28T00:11:08.070Z,0.80
2017-12-28T00:13:35.600Z,3.33
2017-12-28T00:16:03.345Z,1.33
2017-12-28T00:18:30.953Z,1.20
2017-12-28T00:20:58.521Z,1.57
2017-12-28T00:23:26.221Z,1.27
2017-12-28T00:25:53.832Z,1.17
2017-12-28T00:28:21.511Z,0.70
2017-12-28T00:30:49.109Z,1.10
2017-12-28T00:33:16.618Z,1.00
2017-12-28T00:35:44.148Z,1.03
2017-12-28T00:38:11.704Z,3.07
2017-12-28T00:40:39.202Z,1.57
2017-12-28T00:43:06.810Z,1.00
2017-12-28T00:45:34.366Z,1.10
2017-12-28T00:48:01.909Z,1.20
2017-12-28T00:50:29.485Z,1.53
2017-12-28T00:52:57.032Z,1.03
2017-12-28T00:55:24.722Z,1.30
2017-12-28T00:57:52.295Z,1.60
2017-12-28T01:00:19.915Z,1.67
2017-12-28T01:02:47.523Z,1.33
2017-12-28T01:05:15.028Z,2.40
2017-12-28T01:07:42.787Z,1.30
2017-12-28T01:10:10.467Z,1.37
2017-12-28T01:12:38.094Z,1.17
2017-12-28T01:15:05.918Z,1.23
2017-12-28T01:17:33.466Z,1.70
2017-12-28T01:20:01.045Z,1.60
2017-12-28T01:22:33.443Z,1.20
2017-12-28T01:25:01.021Z,1.40
2017-12-28T01:27:28.583Z,1.40
2017-12-28T01:29:56.125Z,1.20
2017-12-28T01:32:23.686Z,2.10
2017-12-28T01:34:51.295Z,1.50
2017-12-28T01:37:18.867Z,2.43
2017-12-28T01:39:48.029Z,1.60
2017-12-28T01:42:15.673Z,2.53
2017-12-28T01:44:43.218Z,1.30
2017-12-28T01:47:10.767Z,1.63
2017-12-28T01:49:38.335Z,1.63
2017-12-28T01:52:05.851Z,1.43
2017-12-28T01:54:33.427Z,1.87
2017-12-28T01:57:00.967Z,1.40
2017-12-28T01:59:28.508Z,2.90
2017-12-28T02:01:56.012Z,1.60
2017-12-28T02:04:23.582Z,1.40
2017-12-28T02:06:51.179Z,1.40
2017-12-28T02:09:18.966Z,1.70
2017-12-28T02:11:46.494Z,1.90
2017-12-28T02:14:13.999Z,1.67
2017-12-28T02:16:41.877Z,1.90
2017-12-28T02:19:09.395Z,2.00
2017-12-28T02:21:36.925Z,1.63
2017-12-28T02:24:04.535Z,2.30
2017-12-28T02:26:32.046Z,1.67
2017-12-28T02:28:59.543Z,1.53
2017-12-28T02:31:27.375Z,3.13
2017-12-28T02:33:54.954Z,2.03
2017-12-28T02:36:22.505Z,1.73
2017-12-28T02:38:50.047Z,2.90
2017-12-28T02:41:17.613Z,2.80
2017-12-28T02:43:45.409Z,3.00
2017-12-28T02:46:12.988Z,1.63
2017-12-28T02:48:40.530Z,1.57
2017-12-28T02:51:08.333Z,2.23
2017-12-28T02:53:35.982Z,2.03
2017-12-28T02:56:03.515Z,1.53
2017-12-28T02:58:31.052Z,2.53
2017-12-28T03:00:58.664Z,3.37
2017-12-28T03:03:26.223Z,2.03
2017-12-28T03:05:53.872Z,2.03
2017-12-28T03:08:21.457Z,2.30
2017-12-28T03:10:49.093Z,1.57
2017-12-28T03:13:16.636Z,1.87
2017-12-28T03:15:44.175Z,2.40
2017-12-28T03:18:11.848Z,1.90
2017-12-28T03:20:39.446Z,2.20
2017-12-28T03:23:07.066Z,1.40
2017-12-28T03:25:34.872Z,2.33
2017-12-28T03:28:02.450Z,2.30
2017-12-28T03:30:30.054Z,1.93
2017-12-28T03:32:57.578Z,1.97
2017-12-28T03:35:25.108Z,1.50
2017-12-28T03:37:52.652Z,2.50
2017-12-28T03:40:20.180Z,2.63
2017-12-28T03:42:47.982Z,2.50
2017-12-28T03:45:15.548Z,1.97
2017-12-28T03:47:43.098Z,2.50
2017-12-28T03:50:10.669Z,1.53
2017-12-28T03:52:38.480Z,1.77
2017-12-28T03:55:06.257Z,1.40
2017-12-28T03:57:33.767Z,2.20
2017-12-28T04:00:01.315Z,2.37
2017-12-28T04:02:28.899Z,2.53
2017-12-28T04:04:56.526Z,3.60
2017-12-28T04:07:24.327Z,1.63
2017-12-28T04:09:51.877Z,1.97
2017-12-28T04:12:19.472Z,2.10
2017-12-28T04:14:47.046Z,2.07
2017-12-28T04:17:14.831Z,1.10
2017-12-28T04:19:42.493Z,2.13
2017-12-28T04:22:10.181Z,1.83
2017-12-28T04:24:37.700Z,2.20
2017-12-28T04:27:05.290Z,2.47
2017-12-28T04:29:32.829Z,2.77
2017-12-28T04:32:00.424Z,2.13
2017-12-28T04:34:28.035Z,2.00
2017-12-28T04:36:55.931Z,2.00
2017-12-28T04:39:23.482Z,2.10
2017-12-28T04:41:51.150Z,1.80
2017-12-28T04:44:18.713Z,1.70
2017-12-28T04:46:46.253Z,1.30
2017-12-28T04:49:13.819Z,2.27
2017-12-28T04:51:41.666Z,1.73
2017-12-28T04:54:09.189Z,2.13
2017-12-28T04:56:36.816Z,1.77
2017-12-28T04:59:04.396Z,1.30
2017-12-28T05:01:32.060Z,1.50
2017-12-28T05:03:59.674Z,2.03
2017-12-28T05:06:27.189Z,2.23
2017-12-28T05:08:54.742Z,2.07
2017-12-28T05:11:22.326Z,1.93
2017-12-28T05:13:49.886Z,3.13
2017-12-28T05:16:17.704Z,2.00
2017-12-28T05:18:45.258Z,1.87
2017-12-28T05:21:12.904Z,2.13
2017-12-28T05:23:40.481Z,2.30
2017-12-28T05:26:08.165Z,3.77
2017-12-28T05:28:35.925Z,3.60
2017-12-28T05:31:03.443Z,2.43
2017-12-28T05:33:30.990Z,1.80
2017-12-28T05:35:58.591Z,2.30
2017-12-28T05:38:26.112Z,2.20
2017-12-28T05:40:53.648Z,1.93
2017-12-28T05:43:21.519Z,1.23
2017-12-28T05:45:49.027Z,2.00
2017-12-28T05:48:16.578Z,1.47
2017-12-28T05:50:44.214Z,2.03
2017-12-28T05:53:11.813Z,1.90
2017-12-28T05:55:39.333Z,1.80
2017-12-28T05:58:06.896Z,3.87
2017-12-28T06:00:34.456Z,2.20
2017-12-28T06:03:01.997Z,2.60
2017-12-28T06:05:29.572Z,3.27
2017-12-28T06:07:57.131Z,6.70
2017-12-28T06:10:24.822Z,3.47
2017-12-28T06:12:52.369Z,4.87
2017-12-28T06:15:19.932Z,3.60
2017-12-28T06:17:47.444Z,3.67
2017-12-28T06:20:14.986Z,4.67
2017-12-28T06:22:42.586Z,4.40
2017-12-28T06:25:10.257Z,3.67
2017-12-28T06:27:37.932Z,3.40
2017-12-28T06:30:05.535Z,3.43
2017-12-28T06:32:33.076Z,4.30
2017-12-28T06:35:00.592Z,3.50
2017-12-28T06:37:28.204Z,3.33
2017-12-28T06:39:55.755Z,3.37
2017-12-28T06:42:23.477Z,2.73
2017-12-28T06:44:51.074Z,2.50
2017-12-28T06:47:18.621Z,3.20
2017-12-28T06:49:46.143Z,2.77
2017-12-28T06:52:13.707Z,3.27
2017-12-28T06:54:41.399Z,3.30
2017-12-28T06:57:08.908Z,1.97
2017-12-28T06:59:36.440Z,3.33
2017-12-28T07:02:04.073Z,3.53
2017-12-28T07:04:31.843Z,2.50
2017-12-28T07:06:59.398Z,2.70
2017-12-28T07:09:26.942Z,2.80
2017-12-28T07:11:54.516Z,3.83
2017-12-28T07:14:22.064Z,3.30
2017-12-28T07:16:49.580Z,4.00
2017-12-28T07:19:17.157Z,3.97
2017-12-28T07:21:44.686Z,2.80
2017-12-28T07:24:12.190Z,1.57
2017-12-28T07:26:39.768Z,2.40
2017-12-28T07:29:07.340Z,4.67
2017-12-28T07:31:34.882Z,3.37
2017-12-28T07:34:02.400Z,1.87
2017-12-28T07:36:29.972Z,4.03
2017-12-28T07:38:57.508Z,4.07
2017-12-28T07:41:25.063Z,2.23
2017-12-28T07:43:52.752Z,2.93
2017-12-28T07:46:20.358Z,1.90
2017-12-28T07:48:47.929Z,2.40
2017-12-28T07:51:15.627Z,2.40
2017-12-28T07:53:43.242Z,2.40
2017-12-28T07:56:10.819Z,3.57
2017-12-28T07:58:38.375Z,2.60
2017-12-28T08:01:05.922Z,2.13
2017-12-28T08:03:33.473Z,2.60
2017-12-28T08:06:01.022Z,2.27
2017-12-28T08:08:28.566Z,2.57
2017-12-28T08:10:56.256Z,2.20
2017-12-28T08:13:24.243Z,2.53
2017-12-28T08:15:51.790Z,3.43
2017-12-28T08:18:19.308Z,4.20
2017-12-28T08:20:46.878Z,2.20
2017-12-28T08:23:14.557Z,2.20
2017-12-28T08:25:42.076Z,2.13
2017-12-28T08:28:09.631Z,2.03
2017-12-28T08:30:37.168Z,2.50
2017-12-28T08:33:04.682Z,2.60
2017-12-28T08:35:32.290Z,2.90
2017-12-28T08:37:59.800Z,2.77
2017-12-28T08:40:27.295Z,2.50
2017-12-28T08:42:54.869Z,1.70
2017-12-28T08:45:22.422Z,2.40
2017-12-28T08:47:49.972Z,2.60
2017-12-28T08:50:17.686Z,2.33
2017-12-28T08:52:45.212Z,3.07
2017-12-28T08:55:13.037Z,3.27
2017-12-28T08:57:40.618Z,2.33
2017-12-28T09:00:08.166Z,2.63
2017-12-28T09:02:35.747Z,3.13
2017-12-28T09:05:03.277Z,3.90
2017-12-28T09:07:30.822Z,3.43
2017-12-28T09:09:58.430Z,2.90
2017-12-28T09:12:25.942Z,2.80
2017-12-28T09:14:53.486Z,2.87
2017-12-28T09:17:21.043Z,3.37
2017-12-28T09:19:48.552Z,3.40
2017-12-28T09:22:16.093Z,3.97
2017-12-28T09:24:43.634Z,3.80
2017-12-28T09:27:11.147Z,2.90
2017-12-28T09:29:38.700Z,3.40
2017-12-28T09:32:06.297Z,2.50
2017-12-28T09:34:33.877Z,3.03
2017-12-28T09:37:01.454Z,3.60
2017-12-28T09:39:28.974Z,2.47
2017-12-28T09:41:56.496Z,2.40
2017-12-28T09:44:24.072Z,3.20
2017-12-28T09:46:51.620Z,2.83
2017-12-28T09:49:19.162Z,2.67
2017-12-28T09:51:46.738Z,2.73
2017-12-28T09:54:14.282Z,2.10
2017-12-28T09:56:41.857Z,2.90
2017-12-28T09:59:09.453Z,2.40
2017-12-28T10:01:37.053Z,2.87
2017-12-28T10:04:04.737Z,2.50
2017-12-28T10:06:32.555Z,1.90
2017-12-28T10:09:00.073Z,1.63
2017-12-28T10:11:27.631Z,2.70
2017-12-28T10:13:55.168Z,2.47
2017-12-28T10:16:22.710Z,1.93
2017-12-28T10:18:50.246Z,1.90
2017-12-28T10:21:17.801Z,2.80
2017-12-28T10:23:45.455Z,2.67
2017-12-28T10:26:12.972Z,2.53
2017-12-28T10:28:40.546Z,2.70
2017-12-28T10:31:08.386Z,2.60
2017-12-28T10:33:35.933Z,2.67
2017-12-28T10:36:03.479Z,2.90
2017-12-28T10:38:31.089Z,2.60
2017-12-28T10:40:58.644Z,3.50
2017-12-28T10:43:26.160Z,2.20
2017-12-28T10:45:53.724Z,2.40
2017-12-28T10:48:21.249Z,3.20
2017-12-28T10:50:48.795Z,2.30
2017-12-28T10:53:16.290Z,2.03
2017-12-28T10:55:43.842Z,2.27
2017-12-28T10:58:11.409Z,2.63
2017-12-28T11:00:38.987Z,2.00
2017-12-28T11:03:06.496Z,2.90
2017-12-28T11:05:34.125Z,1.30
2017-12-28T11:08:01.702Z,1.77
2017-12-28T11:10:29.243Z,2.20
2017-12-28T11:12:56.923Z,2.20
2017-12-28T11:15:24.465Z,1.83
2017-12-28T11:17:52.279Z,2.13
2017-12-28T11:20:19.792Z,2.23
2017-12-28T11:22:47.360Z,1.93
2017-12-28T11:25:14.918Z,1.97
2017-12-28T11:27:42.495Z,2.23
2017-12-28T11:30:10.037Z,2.50
2017-12-28T11:32:37.680Z,1.80
2017-12-28T11:35:05.280Z,3.30
2017-12-28T11:37:32.799Z,2.43
2017-12-28T11:40:00.387Z,1.93
2017-12-28T11:42:27.946Z,4.27
2017-12-28T11:44:55.446Z,2.73
2017-12-28T11:47:23.253Z,3.30
2017-12-28T11:49:52.662Z,2.20
2017-12-28T11:52:21.772Z,2.40
2017-12-28T11:54:49.501Z,3.10
2017-12-28T11:57:22.511Z,2.50
2017-12-28T11:59:50.069Z,2.33
2017-12-28T12:05:24.609Z,2.60
2017-12-28T12:07:52.447Z,3.00
2017-12-28T12:10:22.980Z,2.73
2017-12-28T12:12:50.653Z,2.43
2017-12-28T12:15:18.222Z,2.03
2017-12-28T12:17:45.764Z,2.40
2017-12-28T12:20:13.281Z,2.90
2017-12-28T12:22:40.811Z,2.30
2017-12-28T12:25:08.328Z,1.97
2017-12-28T12:27:35.892Z,1.90
2017-12-28T12:30:03.404Z,2.53
2017-12-28T12:32:30.945Z,2.40
2017-12-28T12:34:58.553Z,3.63
2017-12-28T12:37:26.092Z,3.20
2017-12-28T12:39:53.900Z,2.23
2017-12-28T12:42:21.450Z,2.57
2017-12-28T12:44:49.001Z,2.67
2017-12-28T12:47:16.683Z,2.47
2017-12-28T12:49:44.230Z,2.50
2017-12-28T12:52:11.767Z,2.50
2017-12-28T12:54:39.442Z,2.50
2017-12-28T12:57:07.014Z,2.43
2017-12-28T12:59:34.587Z,1.80
2017-12-28T13:02:02.155Z,1.70
2017-12-28T13:04:29.939Z,2.70
2017-12-28T13:06:57.497Z,2.07
2017-12-28T13:09:25.061Z,2.07
2017-12-28T13:11:52.690Z,2.20
2017-12-28T13:14:20.229Z,2.00
2017-12-28T13:16:49.155Z,2.30
2017-12-28T13:19:16.705Z,2.10
2017-12-28T13:21:44.215Z,2.47
2017-12-28T13:24:11.773Z,2.30
2017-12-28T13:26:39.370Z,2.30
2017-12-28T13:29:06.937Z,1.90
2017-12-28T13:31:34.494Z,2.07
2017-12-28T13:34:02.349Z,2.60
2017-12-28T13:36:29.898Z,1.90
2017-12-28T13:38:57.407Z,3.07
2017-12-28T13:41:24.972Z,2.77
2017-12-28T13:43:52.608Z,2.87
2017-12-28T13:46:20.148Z,1.67
2017-12-28T13:48:47.890Z,2.80
2017-12-28T13:51:15.465Z,2.73
2017-12-28T13:53:43.002Z,2.53
2017-12-28T13:56:10.593Z,2.87
2017-12-28T13:58:38.112Z,1.93
2017-12-28T14:01:05.620Z,1.90
2017-12-28T14:03:33.428Z,2.30
2017-12-28T14:06:01.001Z,2.97
2017-12-28T14:08:28.518Z,3.50
2017-12-28T14:10:56.118Z,2.40
2017-12-28T14:13:23.637Z,2.57
2017-12-28T14:15:51.182Z,2.70
2017-12-28T14:18:18.751Z,2.73
2017-12-28T14:20:46.241Z,2.00
2017-12-28T14:23:13.744Z,3.20
2017-12-28T14:25:41.275Z,2.90
2017-12-28T14:28:08.802Z,1.90
2017-12-28T14:30:36.519Z,3.23
2017-12-28T14:33:04.053Z,3.30
2017-12-28T14:35:31.624Z,2.70
2017-12-28T14:37:59.198Z,1.63
2017-12-28T14:40:26.715Z,2.57
2017-12-28T14:42:54.493Z,2.10
2017-12-28T14:45:21.999Z,2.13
2017-12-28T14:47:49.569Z,1.93
2017-12-28T14:50:17.127Z,2.20
2017-12-28T14:52:44.737Z,1.83
2017-12-28T14:55:12.248Z,1.80
2017-12-28T14:57:39.781Z,1.93
2017-12-28T15:00:07.366Z,2.80
2017-12-28T15:02:34.894Z,2.07
2017-12-28T15:05:02.428Z,1.77
2017-12-28T15:07:30.022Z,1.87
2017-12-28T15:09:57.531Z,2.50
2017-12-28T15:12:25.031Z,2.63
2017-12-28T15:14:52.576Z,2.00
2017-12-28T15:17:20.130Z,1.97
2017-12-28T15:19:47.724Z,2.43
2017-12-28T15:22:15.271Z,2.00
2017-12-28T15:24:42.782Z,2.40
2017-12-28T15:27:10.494Z,2.43
2017-12-28T15:29:38.043Z,2.03
2017-12-28T15:32:05.564Z,2.33
2017-12-28T15:34:33.164Z,1.97
2017-12-28T15:37:00.693Z,2.17
2017-12-28T15:39:28.194Z,2.10
2017-12-28T15:41:55.719Z,2.07
2017-12-28T15:44:23.253Z,2.97
2017-12-28T15:46:50.807Z,2.03
2017-12-28T15:49:18.325Z,2.97
2017-12-28T15:51:46.021Z,3.93
2017-12-28T15:54:13.702Z,2.90
2017-12-28T15:56:41.214Z,2.53
2017-12-28T15:59:08.728Z,2.63
2017-12-28T16:01:36.376Z,2.90
2017-12-28T16:04:03.871Z,2.93
2017-12-28T16:06:31.413Z,1.83
2017-12-28T16:08:59.004Z,2.33
2017-12-28T16:11:26.554Z,7.70
2017-12-28T16:13:54.058Z,3.20
2017-12-28T16:16:21.624Z,3.30
2017-12-28T16:18:49.215Z,2.57
2017-12-28T16:21:16.727Z,2.50
2017-12-28T16:23:44.274Z,4.70
2017-12-28T16:26:11.942Z,3.27
2017-12-28T16:28:39.453Z,3.00
2017-12-28T16:31:06.986Z,3.17
2017-12-28T16:33:34.573Z,2.50
2017-12-28T16:36:02.119Z,2.97
2017-12-28T16:38:29.658Z,2.90
2017-12-28T16:40:57.217Z,2.93
2017-12-28T16:43:25.570Z,4.20
2017-12-28T16:45:53.081Z,3.73
2017-12-28T16:48:20.690Z,3.90
2017-12-28T16:50:48.200Z,3.90
2017-12-28T16:53:15.758Z,4.13
2017-12-28T16:55:43.291Z,4.10
2017-12-28T16:58:10.838Z,3.37
2017-12-28T17:00:38.370Z,3.33
2017-12-28T17:03:05.913Z,3.83
2017-12-28T17:05:33.701Z,4.00
2017-12-28T17:08:01.258Z,2.87
2017-12-28T17:10:28.806Z,2.70
2017-12-28T17:12:56.385Z,3.40
2017-12-28T17:15:23.962Z,3.20
2017-12-28T17:17:51.556Z,2.93
2017-12-28T17:20:19.101Z,4.53
2017-12-28T17:22:46.622Z,2.93
2017-12-28T17:25:14.419Z,3.80
2017-12-28T17:27:41.938Z,2.20
2017-12-28T17:30:09.509Z,3.07
2017-12-28T17:32:37.044Z,3.40
2017-12-28T17:35:04.599Z,3.30
2017-12-28T17:37:32.170Z,3.60
2017-12-28T17:39:59.685Z,2.67
2017-12-28T17:42:27.323Z,3.40
2017-12-28T17:44:54.851Z,3.10
2017-12-28T17:47:22.470Z,3.07
2017-12-28T17:49:49.971Z,3.87
2017-12-28T17:52:17.593Z,4.40
2017-12-28T17:54:45.170Z,4.37
2017-12-28T17:57:12.767Z,3.90
2017-12-28T17:59:40.275Z,3.73
2017-12-28T18:02:07.908Z,3.87
2017-12-28T18:04:35.691Z,3.90
2017-12-28T18:07:03.238Z,4.63
2017-12-28T18:09:30.798Z,3.53
2017-12-28T18:11:58.388Z,4.20
2017-12-28T18:14:25.926Z,3.87
2017-12-28T18:16:53.501Z,4.60
2017-12-28T18:19:21.125Z,4.77
2017-12-28T18:21:48.729Z,3.60
2017-12-28T18:24:16.271Z,3.33
2017-12-28T18:26:44.004Z,3.30
2017-12-28T18:29:11.612Z,5.20
2017-12-28T18:31:39.107Z,4.70
2017-12-28T18:34:06.616Z,5.10
2017-12-28T18:36:34.192Z,4.83
2017-12-28T18:39:01.718Z,3.77
2017-12-28T18:41:29.314Z,3.60
2017-12-28T18:43:56.868Z,3.20
2017-12-28T18:46:24.377Z,5.53
2017-12-28T18:48:51.888Z,6.63
2017-12-28T18:51:19.471Z,4.50
2017-12-28T18:53:47.073Z,4.27
2017-12-28T18:56:14.727Z,3.30
2017-12-28T18:58:42.247Z,5.47
2017-12-28T19:01:09.827Z,3.70
2017-12-28T19:03:37.343Z,3.93
2017-12-28T19:06:05.033Z,5.23
2017-12-28T19:08:32.655Z,3.57
2017-12-28T19:11:00.868Z,4.40
2017-12-28T19:13:28.469Z,3.60
2017-12-28T19:15:56.036Z,3.73
2017-12-28T19:18:23.616Z,4.53
2017-12-28T19:20:51.122Z,5.40
2017-12-28T19:23:18.745Z,4.33
2017-12-28T19:25:46.283Z,4.70
2017-12-28T19:28:13.834Z,4.37
2017-12-28T19:30:41.396Z,4.13
2017-12-28T19:33:09.034Z,4.83
2017-12-28T19:35:36.817Z,4.80
2017-12-28T19:38:04.364Z,4.17
2017-12-28T19:40:32.163Z,4.93
2017-12-28T19:42:59.740Z,5.43
2017-12-28T19:45:27.269Z,5.00
2017-12-28T19:47:55.015Z,5.30
2017-12-28T19:50:22.666Z,5.40
2017-12-28T19:52:50.187Z,5.20
2017-12-28T19:55:17.797Z,4.93
2017-12-28T19:57:45.379Z,5.27
2017-12-28T20:00:13.161Z,4.77
2017-12-28T20:02:40.741Z,5.17
2017-12-28T20:05:08.374Z,6.10
2017-12-28T20:07:35.921Z,5.73
2017-12-28T20:10:03.762Z,6.47
2017-12-28T20:12:31.283Z,5.60
2017-12-28T20:14:58.827Z,6.03
2017-12-28T20:17:26.360Z,5.57
2017-12-28T20:19:53.920Z,5.47
2017-12-28T20:22:21.722Z,6.23
2017-12-28T20:24:49.251Z,6.00
2017-12-28T20:27:16.778Z,5.57
2017-12-28T20:29:44.439Z,6.30
2017-12-28T20:32:12.060Z,6.00
2017-12-28T20:34:39.999Z,5.30
2017-12-28T20:37:07.536Z,5.20
2017-12-28T20:39:35.209Z,5.13
2017-12-28T20:42:02.976Z,5.70
2017-12-28T20:44:30.802Z,6.10
2017-12-28T20:46:58.347Z,5.77
2017-12-28T20:49:26.126Z,6.37
2017-12-28T20:51:53.708Z,5.07
2017-12-28T20:54:21.300Z,5.60
2017-12-28T20:56:49.187Z,5.63
2017-12-28T20:59:17.067Z,6.70
2017-12-28T21:01:44.816Z,5.50
2017-12-28T21:04:12.524Z,5.27
2017-12-28T21:06:40.292Z,5.57
2017-12-28T21:09:07.863Z,5.00
2017-12-28T21:11:35.463Z,6.70
2017-12-28T21:14:03.032Z,4.37
2017-12-28T21:16:30.622Z,6.07
2017-12-28T21:18:58.182Z,5.60
2017-12-28T21:21:25.859Z,5.60
2017-12-28T21:23:53.619Z,5.83
2017-12-28T21:26:21.206Z,7.60
2017-12-28T21:28:48.869Z,4.97
2017-12-28T21:31:16.456Z,5.60
2017-12-28T21:33:44.005Z,6.60
2017-12-28T21:36:11.603Z,6.67
2017-12-28T21:38:39.204Z,6.97
2017-12-28T21:41:06.757Z,5.30
2017-12-28T21:43:34.508Z,5.97
2017-12-28T21:46:02.085Z,10.13
2017-12-28T21:48:29.679Z,4.30
2017-12-28T21:50:57.224Z,6.40
2017-12-28T21:53:24.773Z,6.57
2017-12-28T21:55:52.371Z,5.37
2017-12-28T21:58:19.945Z,6.20
2017-12-28T22:00:47.477Z,8.70
2017-12-28T22:03:15.037Z,6.03
2017-12-28T22:05:42.602Z,7.47
2017-12-28T22:08:10.150Z,6.50
2017-12-28T22:10:37.727Z,6.83
2017-12-28T22:13:05.326Z,6.03
2017-12-28T22:15:32.967Z,6.33
2017-12-28T22:18:00.595Z,7.10
2017-12-28T22:20:28.157Z,7.20
2017-12-28T22:22:55.699Z,6.27
2017-12-28T22:25:23.518Z,7.40
2017-12-28T22:27:51.079Z,6.93
2017-12-28T22:30:18.758Z,7.27
2017-12-28T22:32:46.358Z,9.07
2017-12-28T22:35:14.091Z,8.23
2017-12-28T22:37:41.660Z,9.17
2017-12-28T22:40:09.349Z,8.30
2017-12-28T22:42:36.893Z,7.30
2017-12-28T22:45:04.862Z,9.10
2017-12-28T22:47:32.380Z,8.23
2017-12-28T22:49:59.996Z,7.83
2017-12-28T22:52:27.678Z,7.80
2017-12-28T22:54:55.230Z,9.80
2017-12-28T22:57:22.858Z,7.63
2017-12-28T22:59:50.467Z,9.33
2017-12-28T23:02:18.068Z,8.20
2017-12-28T23:04:45.604Z,8.53
2017-12-28T23:07:13.222Z,8.57
2017-12-28T23:09:40.833Z,8.70
2017-12-28T23:12:08.453Z,9.00
2017-12-28T23:14:36.041Z,8.77
2017-12-28T23:17:03.562Z,7.00
2017-12-28T23:19:31.067Z,8.30
2017-12-28T23:21:58.868Z,7.03
2017-12-28T23:24:26.651Z,6.83
2017-12-28T23:26:54.425Z,7.37
2017-12-28T23:29:22.058Z,7.43
2017-12-28T23:31:50.801Z,7.33
2017-12-28T23:34:18.456Z,8.10
2017-12-28T23:36:46.067Z,6.70
2017-12-28T23:39:13.722Z,7.37
2017-12-28T23:41:41.603Z,7.60
2017-12-28T23:44:09.205Z,7.50
2017-12-28T23:46:36.820Z,6.70
2017-12-28T23:49:04.375Z,6.87
2017-12-28T23:51:31.982Z,6.93
2017-12-28T23:53:59.559Z,8.00
2017-12-28T23:56:27.078Z,6.80
2017-12-28T23:58:54.718Z,7.43
